createdAt,value
2023-05-02T05:02:25.973Z,82.66
2023-05-02T05:04:53.885Z,82.46
2023-05-02T05:07:20.523Z,82.13
2023-05-02T05:09:50.547Z,81.92
2023-05-02T05:12:19.493Z,81.66
2023-05-02T05:14:46.035Z,81.35
2023-05-02T05:17:14.281Z,81.91
2023-05-02T05:19:40.790Z,81.47
2023-05-02T05:22:08.227Z,81.18
2023-05-02T05:24:34.719Z,81.04
2023-05-02T05:27:01.820Z,81.20
2023-05-02T05:29:31.459Z,81.47
2023-05-02T05:31:58.150Z,81.21
2023-05-02T05:34:25.289Z,81.32
2023-05-02T05:36:54.344Z,80.81
2023-05-02T05:39:21.862Z,80.54
2023-05-02T05:41:52.632Z,80.41
2023-05-02T05:44:21.805Z,79.70
2023-05-02T05:46:48.536Z,79.25
2023-05-02T05:49:16.157Z,79.26
2023-05-02T05:51:43.173Z,78.85
2023-05-02T05:54:09.844Z,79.00
2023-05-02T05:56:37.807Z,79.11
2023-05-02T05:59:09.320Z,79.18
2023-05-02T06:01:35.870Z,78.65
2023-05-02T06:04:04.956Z,78.41
2023-05-02T06:06:34.460Z,78.72
2023-05-02T06:09:03.015Z,78.57
2023-05-02T06:11:29.644Z,78.41
2023-05-02T06:13:56.650Z,78.09
2023-05-02T06:16:23.542Z,78.15
2023-05-02T06:18:51.417Z,78.01
2023-05-02T06:21:17.876Z,77.92
2023-05-02T06:23:44.590Z,77.89
2023-05-02T06:26:11.081Z,77.75
2023-05-02T06:28:37.505Z,77.73
2023-05-02T06:31:05.977Z,77.74
2023-05-02T06:33:33.496Z,77.38
2023-05-02T06:36:01.656Z,76.76
2023-05-02T06:38:28.641Z,76.68
2023-05-02T06:40:55.076Z,76.40
2023-05-02T06:43:21.558Z,76.62
2023-05-02T06:45:47.962Z,76.30
2023-05-02T06:48:15.092Z,75.42
2023-05-02T06:50:41.535Z,74.96
2023-05-02T06:53:07.972Z,75.07
2023-05-02T06:55:34.419Z,75.28
2023-05-02T06:58:00.870Z,75.36
2023-05-02T07:00:27.376Z,75.15
2023-05-02T07:02:53.841Z,74.66
2023-05-02T07:05:20.374Z,74.96
2023-05-02T07:07:46.796Z,75.23
2023-05-02T07:10:13.244Z,74.74
2023-05-02T07:12:39.690Z,74.50
2023-05-02T07:15:06.905Z,74.34
2023-05-02T07:17:33.481Z,73.84
2023-05-02T07:20:00.247Z,73.36
2023-05-02T07:22:27.051Z,72.73
2023-05-02T07:25:01.616Z,72.54
2023-05-02T07:27:28.235Z,72.65
2023-05-02T07:29:54.692Z,72.49
2023-05-02T07:32:26.489Z,72.74
2023-05-02T07:34:56.885Z,72.68
2023-05-02T07:37:23.629Z,72.84
2023-05-02T07:39:50.108Z,72.82
2023-05-02T07:42:16.577Z,73.05
2023-05-02T07:44:43.159Z,72.82
2023-05-02T07:47:09.855Z,72.58
2023-05-02T07:49:36.864Z,72.26
2023-05-02T07:52:04.232Z,72.48
2023-05-02T07:54:30.890Z,72.11
2023-05-02T07:56:58.645Z,72.35
2023-05-02T07:59:25.162Z,72.40
2023-05-02T08:01:51.609Z,72.18
2023-05-02T08:04:18.174Z,72.44
2023-05-02T08:06:45.268Z,72.37
2023-05-02T08:09:11.858Z,72.20
2023-05-02T08:11:38.284Z,71.89
2023-05-02T08:14:04.741Z,72.02
2023-05-02T08:16:31.777Z,71.81
2023-05-02T08:18:58.296Z,71.77
2023-05-02T08:21:25.250Z,71.40
2023-05-02T08:23:51.731Z,70.47
2023-05-02T08:26:18.957Z,70.60
2023-05-02T08:28:45.439Z,70.80
2023-05-02T08:31:11.932Z,70.62
2023-05-02T08:33:38.386Z,69.89
2023-05-02T08:36:15.706Z,70.43
2023-05-02T08:38:42.885Z,70.67
2023-05-02T08:41:19.132Z,70.04
2023-05-02T08:43:46.268Z,69.50
2023-05-02T08:46:13.779Z,69.85
2023-05-02T08:48:41.723Z,69.50
2023-05-02T08:51:13.241Z,69.05
2023-05-02T08:53:40.564Z,69.15
2023-05-02T08:56:07.763Z,68.79
2023-05-02T08:58:35.668Z,68.97
2023-05-02T09:01:04.466Z,69.40
2023-05-02T09:03:35.455Z,68.88
2023-05-02T09:06:12.968Z,68.85
2023-05-02T09:08:42.945Z,68.55
2023-05-02T09:11:11.073Z,67.88
2023-05-02T09:13:47.818Z,67.50
2023-05-02T09:16:23.861Z,67.49
2023-05-02T09:18:52.470Z,67.33
2023-05-02T09:21:21.412Z,67.50
2023-05-02T09:23:48.948Z,67.89
2023-05-02T09:26:27.855Z,67.62
2023-05-02T09:28:56.322Z,67.57
2023-05-02T09:31:43.591Z,67.18
2023-05-02T09:34:14.158Z,67.32
2023-05-02T09:36:45.898Z,67.07
2023-05-02T09:39:14.209Z,66.84
2023-05-02T09:41:45.298Z,66.71
2023-05-02T09:44:12.956Z,67.02
2023-05-02T09:46:40.770Z,66.25
2023-05-02T09:49:08.352Z,65.10
2023-05-02T09:51:34.740Z,64.86
2023-05-02T09:54:01.299Z,64.80
2023-05-02T09:56:27.806Z,64.95
2023-05-02T09:59:14.457Z,64.86
2023-05-02T10:01:42.405Z,65.07
2023-05-02T10:04:16.489Z,64.59
2023-05-02T10:06:44.529Z,63.34
2023-05-02T10:09:16.051Z,64.20
2023-05-02T10:11:45.219Z,63.96
2023-05-02T10:14:12.408Z,64.08
2023-05-02T10:16:42.350Z,63.88
2023-05-02T10:19:12.477Z,62.87
2023-05-02T10:21:40.254Z,62.75
2023-05-02T10:24:06.790Z,62.17
2023-05-02T10:26:34.547Z,61.66
2023-05-02T10:29:01.499Z,61.86
2023-05-02T10:31:33.275Z,61.73
2023-05-02T10:33:59.899Z,61.35
2023-05-02T10:36:27.106Z,61.79
2023-05-02T10:38:54.547Z,61.01
2023-05-02T10:41:23.367Z,60.56
2023-05-02T10:43:50.570Z,60.94
2023-05-02T10:46:40.776Z,60.97
2023-05-02T10:49:09.289Z,59.71
2023-05-02T10:51:38.381Z,59.33
2023-05-02T10:54:16.956Z,60.05
2023-05-02T10:57:05.900Z,60.56
2023-05-02T10:59:32.386Z,59.75
2023-05-02T11:01:59.244Z,59.67
2023-05-02T11:04:25.714Z,59.77
2023-05-02T11:07:01.212Z,59.06
2023-05-02T11:09:27.616Z,58.63
2023-05-02T11:11:55.416Z,58.71
2023-05-02T11:14:29.237Z,58.74
2023-05-02T11:16:59.144Z,58.51
2023-05-02T11:19:31.072Z,58.62
2023-05-02T11:22:20.403Z,59.38
2023-05-02T11:24:48.355Z,59.31
2023-05-02T11:27:39.235Z,59.56
2023-05-02T11:30:07.497Z,59.97
2023-05-02T11:32:47.283Z,59.80
2023-05-02T11:35:21.961Z,59.84
2023-05-02T11:37:54.729Z,59.78
2023-05-02T11:40:21.777Z,59.54
2023-05-02T11:42:48.233Z,58.93
2023-05-02T11:45:14.709Z,58.32
2023-05-02T11:47:42.358Z,58.12
2023-05-02T11:50:09.588Z,58.59
2023-05-02T11:52:40.293Z,58.50
2023-05-02T11:55:09.694Z,58.55
2023-05-02T11:57:37.217Z,58.39
2023-05-02T12:00:04.669Z,58.03
2023-05-02T12:02:45.994Z,58.21
2023-05-02T12:05:13.775Z,58.54
2023-05-02T12:07:45.727Z,58.42
2023-05-02T12:10:13.068Z,58.21
2023-05-02T12:12:40.883Z,58.32
2023-05-02T12:15:09.232Z,58.82
2023-05-02T12:17:41.130Z,58.85
2023-05-02T12:20:09.231Z,58.77
2023-05-02T12:22:36.089Z,58.38
2023-05-02T12:25:04.201Z,57.48
2023-05-02T12:27:33.089Z,57.12
2023-05-02T12:29:59.769Z,56.53
2023-05-02T12:32:33.425Z,56.10
2023-05-02T12:35:01.376Z,56.18
2023-05-02T12:37:28.590Z,55.65
2023-05-02T12:39:56.535Z,55.54
2023-05-02T12:42:24.899Z,55.93
2023-05-02T12:44:53.210Z,56.06
2023-05-02T12:47:21.312Z,56.36
2023-05-02T12:49:50.981Z,56.21
2023-05-02T12:52:18.669Z,55.36
2023-05-02T12:54:46.447Z,55.72
2023-05-02T12:57:25.967Z,55.60
2023-05-02T12:59:54.100Z,55.63
2023-05-02T13:02:21.334Z,55.01
2023-05-02T13:04:47.803Z,54.28
2023-05-02T13:07:14.505Z,53.95
2023-05-02T13:09:40.905Z,53.30
2023-05-02T13:12:08.153Z,52.75
2023-05-02T13:14:34.611Z,52.86
2023-05-02T13:17:01.133Z,52.38
2023-05-02T13:19:31.022Z,51.32
2023-05-02T13:21:57.812Z,52.23
2023-05-02T13:24:24.387Z,52.67
2023-05-02T13:26:51.371Z,53.15
2023-05-02T13:29:17.926Z,54.12
2023-05-02T13:31:44.483Z,55.33
2023-05-02T13:34:10.981Z,55.87
2023-05-02T13:36:40.656Z,55.85
2023-05-02T13:39:07.058Z,56.51
2023-05-02T13:41:33.444Z,56.36
2023-05-02T13:43:59.981Z,56.77
2023-05-02T13:46:26.789Z,57.27
2023-05-02T13:48:53.342Z,57.33
2023-05-02T13:51:19.954Z,57.90
2023-05-02T13:53:46.434Z,58.12
2023-05-02T13:56:12.808Z,57.99
2023-05-02T13:58:39.216Z,58.69
2023-05-02T14:01:05.711Z,58.69
2023-05-02T14:03:32.228Z,58.39
2023-05-02T14:05:58.677Z,57.38
2023-05-02T14:08:25.187Z,57.19
2023-05-02T14:10:51.616Z,56.30
2023-05-02T14:13:18.021Z,54.78
2023-05-02T14:15:44.478Z,54.53
2023-05-02T14:18:11.229Z,54.74
2023-05-02T14:20:37.646Z,54.06
2023-05-02T14:23:05.505Z,53.37
2023-05-02T14:25:34.091Z,53.36
2023-05-02T14:28:01.591Z,52.82
2023-05-02T14:30:28.157Z,51.66
2023-05-02T14:32:54.805Z,51.62
2023-05-02T14:35:21.486Z,51.49
2023-05-02T14:37:47.962Z,51.36
2023-05-02T14:40:14.572Z,52.24
2023-05-02T14:42:41.407Z,52.47
2023-05-02T14:45:08.839Z,52.34
2023-05-02T14:47:35.763Z,51.65
2023-05-02T14:50:06.293Z,51.94
2023-05-02T14:52:32.826Z,52.51
2023-05-02T14:55:00.670Z,53.00
2023-05-02T14:57:27.310Z,53.20
2023-05-02T14:59:54.218Z,52.42
2023-05-02T15:02:21.853Z,52.04
2023-05-02T15:04:48.556Z,51.87
2023-05-02T15:07:15.411Z,52.04
2023-05-02T15:09:42.235Z,52.09
2023-05-02T15:12:08.764Z,52.27
2023-05-02T15:14:35.193Z,52.45
2023-05-02T15:17:01.814Z,51.91
2023-05-02T15:19:28.322Z,52.18
2023-05-02T15:21:57.189Z,51.57
2023-05-02T15:24:24.504Z,51.79
2023-05-02T15:26:51.763Z,50.59
2023-05-02T15:29:18.202Z,49.04
2023-05-02T15:31:44.654Z,49.16
2023-05-02T15:34:11.365Z,49.84
2023-05-02T15:36:37.802Z,49.63
2023-05-02T15:39:04.764Z,50.59
2023-05-02T15:41:31.396Z,49.32
2023-05-02T15:43:59.102Z,48.74
2023-05-02T15:46:25.927Z,48.13
2023-05-02T15:48:52.529Z,48.30
2023-05-02T15:51:18.967Z,48.36
2023-05-02T15:53:49.544Z,48.80
2023-05-02T15:56:16.554Z,49.31
2023-05-02T15:58:43.093Z,48.65
2023-05-02T16:01:09.578Z,49.05
2023-05-02T16:03:36.494Z,48.96
2023-05-02T16:06:05.344Z,48.05
2023-05-02T16:08:31.937Z,47.99
2023-05-02T16:11:01.119Z,48.19
2023-05-02T16:13:27.766Z,47.55
2023-05-02T16:15:55.573Z,47.58
2023-05-02T16:18:27.821Z,48.11
2023-05-02T16:20:57.449Z,48.66
2023-05-02T16:23:25.447Z,47.55
2023-05-02T16:26:01.619Z,48.23
2023-05-02T16:28:28.135Z,47.86
2023-05-02T16:30:54.784Z,46.87
2023-05-02T16:33:21.592Z,46.83
2023-05-02T16:35:48.001Z,46.40
2023-05-02T16:38:14.509Z,47.45
2023-05-02T16:40:40.925Z,47.71
2023-05-02T16:43:08.740Z,47.39
2023-05-02T16:45:35.228Z,46.61
2023-05-02T16:48:02.287Z,46.62
2023-05-02T16:50:29.074Z,47.29
2023-05-02T16:52:55.519Z,47.49
2023-05-02T16:55:21.985Z,47.02
2023-05-02T16:57:48.438Z,46.74
2023-05-02T17:00:16.864Z,47.32
2023-05-02T17:02:43.386Z,47.99
2023-05-02T17:05:11.320Z,47.73
2023-05-02T17:07:37.859Z,47.28
2023-05-02T17:10:04.821Z,47.93
2023-05-02T17:12:31.658Z,47.73
2023-05-02T17:14:58.289Z,47.54
2023-05-02T17:17:24.701Z,47.75
2023-05-02T17:19:51.342Z,47.77
2023-05-02T17:22:18.781Z,48.00
2023-05-02T17:24:48.186Z,48.45
2023-05-02T17:27:14.741Z,48.56
2023-05-02T17:29:41.585Z,49.03
2023-05-02T17:32:08.050Z,49.02
2023-05-02T17:34:35.725Z,49.59
2023-05-02T17:37:02.201Z,49.85
2023-05-02T17:39:28.747Z,49.81
2023-05-02T17:41:55.383Z,49.83
2023-05-02T17:44:22.447Z,49.69
2023-05-02T17:46:49.252Z,49.97
2023-05-02T17:49:16.407Z,50.21
2023-05-02T17:51:42.784Z,50.65
2023-05-02T17:54:09.161Z,50.34
2023-05-02T17:56:37.235Z,50.30
2023-05-02T17:59:04.970Z,50.65
2023-05-02T18:01:31.503Z,50.72
2023-05-02T18:03:58.839Z,50.67
2023-05-02T18:06:27.093Z,51.00
2023-05-02T18:08:53.461Z,51.00
2023-05-02T18:11:20.874Z,50.75
2023-05-02T18:13:48.372Z,51.17
2023-05-02T18:16:14.932Z,51.44
2023-05-02T18:18:41.698Z,50.71
2023-05-02T18:21:09.443Z,51.10
2023-05-02T18:23:36.020Z,51.14
2023-05-02T18:26:02.445Z,51.12
2023-05-02T18:28:28.879Z,51.55
2023-05-02T18:30:55.313Z,51.76
2023-05-02T18:33:21.786Z,51.99
2023-05-02T18:35:48.972Z,52.32
2023-05-02T18:38:16.058Z,52.14
2023-05-02T18:40:42.532Z,52.04
2023-05-02T18:43:09.045Z,53.05
2023-05-02T18:45:35.901Z,52.95
2023-05-02T18:48:03.208Z,53.40
2023-05-02T18:50:29.763Z,53.75
2023-05-02T18:52:56.245Z,53.94
2023-05-02T18:55:25.071Z,53.92
2023-05-02T18:57:51.809Z,54.15
2023-05-02T19:00:20.068Z,55.22
2023-05-02T19:02:46.753Z,55.40
2023-05-02T19:05:13.484Z,55.52
2023-05-02T19:07:39.885Z,55.64
2023-05-02T19:10:06.656Z,55.47
2023-05-02T19:12:33.071Z,55.75
2023-05-02T19:15:00.417Z,56.21
2023-05-02T19:17:27.596Z,56.94
2023-05-02T19:19:55.139Z,57.49
2023-05-02T19:22:23.275Z,57.66
2023-05-02T19:24:50.774Z,58.47
2023-05-02T19:27:17.243Z,58.65
2023-05-02T19:29:43.744Z,58.95
2023-05-02T19:32:10.310Z,59.74
2023-05-02T19:34:36.821Z,60.50
2023-05-02T19:37:04.094Z,61.05
2023-05-02T19:39:31.625Z,61.62
2023-05-02T19:41:58.154Z,62.33
2023-05-02T19:44:24.678Z,62.64
2023-05-02T19:46:51.170Z,62.63
2023-05-02T19:49:17.865Z,62.98
2023-05-02T19:51:44.404Z,62.95
2023-05-02T19:54:11.733Z,62.96
2023-05-02T19:56:38.146Z,63.12
2023-05-02T19:59:04.736Z,63.15
2023-05-02T20:01:31.431Z,63.33
2023-05-02T20:03:58.242Z,63.53
2023-05-02T20:06:25.576Z,63.72
2023-05-02T20:08:52.858Z,63.65
2023-05-02T20:11:19.608Z,63.82
2023-05-02T20:13:46.123Z,64.11
2023-05-02T20:16:13.572Z,64.05
2023-05-02T20:18:40.166Z,64.32
2023-05-02T20:21:06.687Z,64.77
2023-05-02T20:23:33.108Z,65.19
2023-05-02T20:25:59.585Z,65.10
2023-05-02T20:28:26.342Z,65.24
2023-05-02T20:30:52.896Z,65.46
2023-05-02T20:33:19.735Z,65.53
2023-05-02T20:35:53.398Z,65.85
2023-05-02T20:38:20.385Z,65.82
2023-05-02T20:40:46.841Z,65.97
2023-05-02T20:43:14.187Z,65.99
2023-05-02T20:45:40.746Z,66.43
2023-05-02T20:48:07.392Z,66.12
2023-05-02T20:50:33.837Z,66.50
2023-05-02T20:53:00.459Z,66.43
2023-05-02T20:55:27.494Z,66.61
2023-05-02T20:57:53.934Z,66.83
2023-05-02T21:00:22.252Z,67.20
2023-05-02T21:02:48.988Z,67.22
2023-05-02T21:05:15.696Z,67.26
2023-05-02T21:07:42.649Z,67.58
2023-05-02T21:10:09.536Z,67.57
2023-05-02T21:12:36.063Z,67.59
2023-05-02T21:15:02.572Z,67.81
2023-05-02T21:17:29.044Z,68.05
2023-05-02T21:19:58.312Z,68.33
2023-05-02T21:22:24.746Z,68.21
2023-05-02T21:24:51.272Z,68.16
2023-05-02T21:27:17.751Z,68.41
2023-05-02T21:29:44.235Z,68.27
2023-05-02T21:32:10.770Z,68.59
2023-05-02T21:34:37.257Z,68.59
2023-05-02T21:37:03.970Z,68.59
2023-05-02T21:39:30.439Z,68.77
2023-05-02T21:41:57.230Z,68.80
2023-05-02T21:44:23.672Z,69.03
2023-05-02T21:46:50.608Z,69.13
2023-05-02T21:49:17.194Z,69.08
2023-05-02T21:51:43.647Z,69.07
2023-05-02T21:54:10.150Z,69.34
2023-05-02T21:56:36.656Z,69.32
2023-05-02T21:59:03.409Z,69.47
2023-05-02T22:01:30.025Z,69.71
2023-05-02T22:03:57.869Z,69.72
2023-05-02T22:06:25.049Z,69.36
2023-05-02T22:08:51.802Z,69.70
2023-05-02T22:11:18.311Z,69.93
2023-05-02T22:13:44.766Z,69.59
2023-05-02T22:16:11.226Z,69.61
2023-05-02T22:18:37.783Z,69.72
2023-05-02T22:21:04.277Z,69.62
2023-05-02T22:23:30.937Z,69.72
2023-05-02T22:25:57.638Z,69.83
2023-05-02T22:28:24.158Z,69.48
2023-05-02T22:30:50.636Z,69.53
2023-05-02T22:33:17.083Z,69.70
2023-05-02T22:35:43.611Z,69.81
2023-05-02T22:38:14.712Z,69.64
2023-05-02T22:40:41.242Z,69.87
2023-05-02T22:43:08.218Z,69.67
2023-05-02T22:45:36.245Z,69.42
2023-05-02T22:48:02.891Z,69.43
2023-05-02T22:50:30.186Z,69.48
2023-05-02T22:52:57.135Z,69.54
2023-05-02T22:55:24.349Z,69.45
2023-05-02T22:57:50.969Z,69.32
2023-05-02T23:00:17.499Z,69.81
2023-05-02T23:02:44.575Z,69.79
2023-05-02T23:05:11.846Z,69.66
2023-05-02T23:07:38.272Z,69.65
2023-05-02T23:10:06.053Z,69.46
2023-05-02T23:12:32.754Z,69.48
2023-05-02T23:14:59.227Z,69.50
2023-05-02T23:17:25.718Z,69.74
2023-05-02T23:19:52.145Z,69.64
2023-05-02T23:22:18.662Z,69.79
2023-05-02T23:24:48.302Z,69.83
2023-05-02T23:27:14.924Z,69.68
2023-05-02T23:29:41.398Z,69.95
2023-05-02T23:32:08.271Z,70.02
2023-05-02T23:34:36.439Z,70.30
2023-05-02T23:37:03.104Z,70.31
2023-05-02T23:39:29.547Z,70.33
2023-05-02T23:41:56.037Z,70.35
2023-05-02T23:44:22.432Z,70.43
2023-05-02T23:46:48.996Z,70.56
2023-05-02T23:49:15.560Z,70.59
2023-05-02T23:51:42.269Z,70.73
2023-05-02T23:54:08.742Z,70.64
2023-05-02T23:56:35.443Z,70.72
2023-05-02T23:59:01.860Z,70.95
